createdAt,value
2022-12-03T00:00:35.426Z,62.38
2022-12-03T00:03:02.635Z,55.22
2022-12-03T00:05:29.813Z,62.17
2022-12-03T00:07:56.979Z,57.63
2022-12-03T00:10:24.158Z,57.80
2022-12-03T00:12:51.511Z,54.28
2022-12-03T00:15:19.625Z,61.53
2022-12-03T00:17:46.694Z,57.33
2022-12-03T00:20:13.824Z,55.92
2022-12-03T00:22:40.941Z,56.53
2022-12-03T00:25:08.003Z,56.20
2022-12-03T00:27:35.102Z,53.08
2022-12-03T00:30:02.247Z,56.42
2022-12-03T00:32:29.390Z,48.30
2022-12-03T00:40:18.167Z,52.45
2022-12-03T00:42:45.733Z,48.83
2022-12-03T00:45:22.685Z,53.58
2022-12-03T00:47:52.374Z,51.45
2022-12-03T00:50:19.441Z,50.95
2022-12-03T00:52:46.530Z,46.95
2022-12-03T00:55:13.608Z,55.30
2022-12-03T00:57:40.694Z,50.13
2022-12-03T01:00:07.750Z,54.97
2022-12-03T01:02:34.896Z,46.97
2022-12-03T01:05:02.167Z,48.85
2022-12-03T01:07:29.431Z,46.17
2022-12-03T01:09:56.492Z,46.22
2022-12-03T01:12:23.582Z,55.17
2022-12-03T01:14:50.816Z,47.55
2022-12-03T01:17:18.045Z,46.33
2022-12-03T01:19:48.401Z,44.45
2022-12-03T01:22:15.745Z,41.50
2022-12-03T01:24:42.848Z,48.28
2022-12-03T01:27:09.905Z,49.05
2022-12-03T01:29:36.972Z,41.05
2022-12-03T01:32:19.947Z,43.20
2022-12-03T01:34:47.197Z,47.50
2022-12-03T01:37:14.274Z,39.28
2022-12-03T01:39:41.338Z,40.63
2022-12-03T01:42:08.412Z,36.40
2022-12-03T01:44:35.533Z,41.83
2022-12-03T01:47:02.673Z,37.08
2022-12-03T01:49:30.026Z,39.08
2022-12-03T01:51:57.127Z,44.10
2022-12-03T01:54:24.193Z,44.65
2022-12-03T01:56:51.255Z,36.22
2022-12-03T01:59:18.315Z,34.60
2022-12-03T02:01:45.437Z,37.15
2022-12-03T02:04:12.576Z,32.58
2022-12-03T02:06:39.677Z,34.97
2022-12-03T02:09:08.607Z,38.92
2022-12-03T02:11:35.661Z,35.97
2022-12-03T02:14:02.717Z,34.58
2022-12-03T02:16:29.859Z,35.58
2022-12-03T02:18:57.030Z,34.78
2022-12-03T02:21:24.106Z,34.60
2022-12-03T02:23:51.349Z,31.67
2022-12-03T02:26:18.402Z,30.65
2022-12-03T02:28:45.481Z,31.02
2022-12-03T02:31:12.618Z,29.15
2022-12-03T02:33:39.703Z,29.00
2022-12-03T02:36:06.773Z,29.80
2022-12-03T02:38:33.873Z,26.65
2022-12-03T02:41:00.934Z,28.88
2022-12-03T02:43:28.007Z,32.65
2022-12-03T02:45:55.265Z,30.27
2022-12-03T02:48:22.330Z,29.17
2022-12-03T02:50:49.386Z,30.63
2022-12-03T02:53:16.441Z,27.92
2022-12-03T02:55:43.493Z,29.83
2022-12-03T02:58:10.568Z,29.23
2022-12-03T03:00:37.923Z,26.48
2022-12-03T03:03:05.095Z,31.15
2022-12-03T03:05:32.195Z,25.50
2022-12-03T03:07:59.365Z,28.13
2022-12-03T03:10:30.835Z,24.38
2022-12-03T03:12:58.396Z,26.33
2022-12-03T03:15:25.615Z,25.85
2022-12-03T03:17:52.696Z,26.08
2022-12-03T03:20:19.793Z,22.65
2022-12-03T03:22:46.848Z,23.20
2022-12-03T03:25:14.017Z,23.52
2022-12-03T03:27:41.155Z,22.42
2022-12-03T03:30:08.270Z,23.90
2022-12-03T03:32:35.346Z,21.55
2022-12-03T03:35:02.419Z,22.10
2022-12-03T03:37:29.506Z,23.55
2022-12-03T03:39:56.731Z,23.92
2022-12-03T03:42:23.843Z,21.30
2022-12-03T03:44:51.139Z,20.95
2022-12-03T03:47:18.466Z,23.63
2022-12-03T03:49:47.888Z,22.00
2022-12-03T03:52:14.992Z,23.83
2022-12-03T03:54:42.114Z,23.92
2022-12-03T03:57:09.223Z,24.30
2022-12-03T03:59:36.317Z,21.65
2022-12-03T04:02:03.496Z,19.15
2022-12-03T04:04:30.760Z,20.80
2022-12-03T04:06:57.951Z,19.45
2022-12-03T04:09:25.029Z,18.70
2022-12-03T04:12:10.956Z,17.90
2022-12-03T04:14:38.025Z,21.65
2022-12-03T04:17:05.095Z,18.35
2022-12-03T04:19:32.164Z,20.02
2022-12-03T04:22:18.271Z,19.60
2022-12-03T04:27:31.208Z,18.80
2022-12-03T04:29:58.314Z,19.77
2022-12-03T04:32:43.933Z,17.25
2022-12-03T04:35:29.714Z,19.80
2022-12-03T04:37:56.833Z,16.17
2022-12-03T04:40:42.466Z,22.98
2022-12-03T04:43:09.793Z,17.60
2022-12-03T04:45:36.909Z,16.45
2022-12-03T04:48:04.046Z,16.52
2022-12-03T04:50:31.153Z,18.35
2022-12-03T04:52:58.214Z,17.15
2022-12-03T04:55:25.262Z,18.52
2022-12-03T04:57:52.322Z,18.77
2022-12-03T05:00:19.455Z,17.55
2022-12-03T05:02:46.599Z,17.73
2022-12-03T05:05:13.704Z,17.77
2022-12-03T05:07:40.786Z,16.20
2022-12-03T05:10:07.858Z,17.27
2022-12-03T05:12:34.933Z,16.70
2022-12-03T05:15:01.994Z,16.13
2022-12-03T05:17:29.156Z,17.17
2022-12-03T05:20:14.978Z,15.77
2022-12-03T05:22:42.049Z,15.82
2022-12-03T05:25:09.112Z,15.38
2022-12-03T05:27:36.193Z,15.27
2022-12-03T05:30:03.263Z,17.90
2022-12-03T05:32:30.366Z,13.73
2022-12-03T05:34:57.429Z,16.25
2022-12-03T05:37:24.481Z,18.63
2022-12-03T05:39:51.536Z,16.13
2022-12-03T05:42:37.394Z,16.42
2022-12-03T05:45:04.485Z,14.63
2022-12-03T05:47:31.542Z,14.13
2022-12-03T05:49:58.602Z,15.80
2022-12-03T05:52:25.708Z,15.85
2022-12-03T05:54:53.076Z,15.13
2022-12-03T05:57:20.299Z,14.48
2022-12-03T05:59:47.457Z,15.13
2022-12-03T06:02:14.580Z,15.13
2022-12-03T06:04:41.736Z,14.38
2022-12-03T06:07:13.794Z,13.73
2022-12-03T06:09:41.303Z,14.70
2022-12-03T06:12:11.165Z,13.27
2022-12-03T06:14:38.215Z,13.50
2022-12-03T06:17:05.304Z,13.02
2022-12-03T06:19:32.349Z,14.38
2022-12-03T06:21:59.457Z,13.75
2022-12-03T06:24:26.538Z,13.82
2022-12-03T06:26:53.637Z,15.38
2022-12-03T06:29:20.703Z,15.00
2022-12-03T06:31:47.786Z,13.95
2022-12-03T06:34:14.837Z,13.95
2022-12-03T06:36:41.909Z,14.40
2022-12-03T06:39:08.969Z,12.95
2022-12-03T06:41:36.087Z,15.05
2022-12-03T06:44:03.202Z,14.02
2022-12-03T06:46:30.324Z,13.48
2022-12-03T06:48:57.429Z,12.70
2022-12-03T06:51:24.504Z,14.35
2022-12-03T06:53:51.579Z,12.38
2022-12-03T06:56:22.076Z,14.10
2022-12-03T06:58:49.632Z,13.35
2022-12-03T07:01:16.722Z,12.55
2022-12-03T07:03:43.875Z,13.15
2022-12-03T07:06:10.928Z,12.18
2022-12-03T07:08:38.006Z,14.25
2022-12-03T07:11:05.064Z,13.65
2022-12-03T07:13:32.106Z,13.05
2022-12-03T07:15:59.213Z,11.85
2022-12-03T07:18:26.294Z,11.18
2022-12-03T07:20:53.438Z,12.13
2022-12-03T07:23:20.562Z,14.57
2022-12-03T07:25:47.658Z,13.02
2022-12-03T07:28:14.733Z,11.98
2022-12-03T07:30:41.790Z,12.98
2022-12-03T07:33:08.868Z,12.75
2022-12-03T07:35:35.922Z,12.48
2022-12-03T07:38:02.977Z,11.75
2022-12-03T07:40:30.225Z,12.98
2022-12-03T07:42:57.289Z,12.13
2022-12-03T07:45:24.343Z,12.52
2022-12-03T07:47:51.402Z,13.02
2022-12-03T07:50:18.514Z,12.00
2022-12-03T07:52:45.581Z,11.27
2022-12-03T07:55:13.348Z,12.10
2022-12-03T07:57:40.407Z,11.60
2022-12-03T08:00:07.480Z,12.15
2022-12-03T08:02:34.670Z,10.82
2022-12-03T08:05:01.789Z,11.65
2022-12-03T08:07:28.918Z,12.05
2022-12-03T08:09:56.026Z,11.57
2022-12-03T08:12:23.142Z,11.43
2022-12-03T08:14:50.261Z,13.13
2022-12-03T08:17:18.586Z,11.40
2022-12-03T08:19:45.646Z,12.98
2022-12-03T08:22:12.712Z,12.27
2022-12-03T08:24:39.817Z,11.38
2022-12-03T08:27:06.891Z,12.70
2022-12-03T08:29:33.963Z,12.30
2022-12-03T08:32:01.096Z,12.57
2022-12-03T08:34:28.247Z,11.65
2022-12-03T08:36:55.315Z,12.43
2022-12-03T08:39:22.394Z,11.43
2022-12-03T08:42:13.590Z,11.40
2022-12-03T08:44:44.168Z,11.55
2022-12-03T08:47:13.039Z,11.27
2022-12-03T08:49:40.342Z,12.13
2022-12-03T08:52:07.433Z,10.75
2022-12-03T08:54:34.546Z,12.70
2022-12-03T08:57:01.599Z,13.77
2022-12-03T08:59:28.705Z,11.52
2022-12-03T09:01:55.761Z,11.90
2022-12-03T09:04:23.038Z,11.95
2022-12-03T09:06:50.151Z,10.55
2022-12-03T09:09:17.213Z,11.45
2022-12-03T09:11:44.378Z,10.70
2022-12-03T09:14:15.235Z,12.82
2022-12-03T09:16:45.348Z,11.55
2022-12-03T09:19:12.458Z,12.93
2022-12-03T09:21:39.538Z,10.13
2022-12-03T09:24:06.638Z,11.23
2022-12-03T09:26:33.701Z,13.15
2022-12-03T09:29:00.768Z,9.77
2022-12-03T09:31:27.934Z,11.02
2022-12-03T09:33:55.017Z,11.32
2022-12-03T09:36:22.099Z,12.25
2022-12-03T09:38:49.239Z,10.75
2022-12-03T09:41:16.294Z,9.77
2022-12-03T09:44:03.447Z,14.52
2022-12-03T09:46:30.508Z,11.77
2022-12-03T09:48:57.653Z,9.98
2022-12-03T09:51:24.705Z,11.20
2022-12-03T09:53:51.944Z,13.23
2022-12-03T09:56:19.268Z,11.50
2022-12-03T09:58:46.374Z,11.07
2022-12-03T10:01:13.586Z,13.27
2022-12-03T10:03:41.058Z,14.13
2022-12-03T10:06:08.208Z,12.60
2022-12-03T10:08:35.355Z,12.38
2022-12-03T10:11:02.422Z,13.05
2022-12-03T10:13:29.488Z,10.88
2022-12-03T10:15:56.582Z,13.18
2022-12-03T10:18:23.683Z,13.93
2022-12-03T10:20:50.775Z,12.52
2022-12-03T10:23:17.844Z,12.13
2022-12-03T10:25:44.899Z,11.07
2022-12-03T10:28:12.000Z,13.05
2022-12-03T10:30:39.179Z,19.83
2022-12-03T10:33:06.250Z,12.27
2022-12-03T10:35:33.321Z,13.90
2022-12-03T10:38:00.395Z,14.23
2022-12-03T10:40:27.565Z,11.90
2022-12-03T10:42:54.672Z,11.20
2022-12-03T10:45:22.626Z,11.05
2022-12-03T10:47:49.810Z,10.45
2022-12-03T10:50:16.960Z,13.10
2022-12-03T10:52:44.094Z,16.13
2022-12-03T10:55:11.195Z,10.68
2022-12-03T10:57:43.737Z,11.50
2022-12-03T11:00:12.541Z,10.32
2022-12-03T11:02:39.618Z,9.73
2022-12-03T11:05:06.716Z,12.38
2022-12-03T11:07:33.796Z,15.80
2022-12-03T11:10:02.676Z,10.48
2022-12-03T11:12:34.663Z,15.18
2022-12-03T11:15:06.453Z,11.63
2022-12-03T11:17:33.557Z,11.18
2022-12-03T11:20:00.613Z,11.63
2022-12-03T11:22:27.740Z,14.45
2022-12-03T11:24:55.179Z,12.70
2022-12-03T11:27:22.527Z,13.85
2022-12-03T11:29:49.677Z,12.55
2022-12-03T11:32:16.783Z,14.65
2022-12-03T11:34:44.125Z,11.50
2022-12-03T11:37:11.310Z,11.15
2022-12-03T11:39:38.382Z,11.32
2022-12-03T11:42:05.463Z,16.73
2022-12-03T11:44:32.668Z,13.00
2022-12-03T11:46:59.994Z,12.20
2022-12-03T11:49:27.164Z,10.88
2022-12-03T11:51:54.253Z,14.85
2022-12-03T11:54:21.319Z,15.52
2022-12-03T11:56:49.481Z,11.98
2022-12-03T11:59:16.879Z,13.40
2022-12-03T12:01:43.945Z,15.20
2022-12-03T12:04:11.051Z,15.35
2022-12-03T12:06:38.160Z,17.52
2022-12-03T12:09:05.215Z,17.13
2022-12-03T12:11:32.335Z,15.25
2022-12-03T12:13:59.499Z,15.20
2022-12-03T12:16:26.608Z,17.58
2022-12-03T12:18:55.387Z,16.60
2022-12-03T12:21:22.889Z,13.10
2022-12-03T12:23:49.958Z,15.75
2022-12-03T12:26:17.013Z,20.27
2022-12-03T12:28:44.132Z,16.98
2022-12-03T12:31:11.594Z,16.25
2022-12-03T12:33:38.748Z,16.50
2022-12-03T12:36:05.909Z,14.55
2022-12-03T12:38:32.969Z,18.50
2022-12-03T12:41:00.031Z,12.32
2022-12-03T12:43:27.114Z,13.30
2022-12-03T12:45:54.577Z,16.67
2022-12-03T12:48:21.998Z,19.85
2022-12-03T12:50:49.142Z,14.98
2022-12-03T12:53:16.208Z,13.02
2022-12-03T12:55:43.543Z,12.98
2022-12-03T12:58:10.618Z,16.98
2022-12-03T13:00:37.725Z,16.23
2022-12-03T13:03:04.856Z,16.38
2022-12-03T13:05:31.937Z,13.07
2022-12-03T13:07:59.043Z,13.68
2022-12-03T13:10:26.238Z,15.18
2022-12-03T13:12:53.313Z,13.40
2022-12-03T13:15:20.389Z,14.95
2022-12-03T13:17:53.874Z,16.00
2022-12-03T13:20:20.940Z,12.40
2022-12-03T13:22:54.885Z,17.48
2022-12-03T13:25:44.033Z,12.85
2022-12-03T13:28:15.941Z,16.52
2022-12-03T13:30:44.064Z,11.68
2022-12-03T13:33:11.634Z,14.35
2022-12-03T13:35:39.906Z,11.63
2022-12-03T13:38:07.007Z,13.82
2022-12-03T13:40:37.169Z,15.80
2022-12-03T13:43:04.384Z,31.23
2022-12-03T13:45:31.487Z,30.75
2022-12-03T13:47:58.584Z,28.58
2022-12-03T13:50:25.643Z,33.15
2022-12-03T13:52:53.147Z,20.67
2022-12-03T13:55:20.207Z,31.80
2022-12-03T13:57:47.250Z,63.10
2022-12-03T14:00:14.312Z,63.00
2022-12-03T14:02:41.447Z,41.10
2022-12-03T14:05:08.547Z,36.45
2022-12-03T14:07:35.630Z,42.47
2022-12-03T14:10:02.718Z,34.28
2022-12-03T14:12:33.831Z,32.72
2022-12-03T14:15:01.146Z,42.30
2022-12-03T14:17:28.313Z,38.10
2022-12-03T14:19:55.569Z,37.67
2022-12-03T14:22:25.169Z,32.05
2022-12-03T14:24:52.226Z,42.80
2022-12-03T14:27:19.374Z,46.50
2022-12-03T14:29:46.446Z,38.42
2022-12-03T14:32:13.591Z,32.90
2022-12-03T14:34:40.755Z,28.23
2022-12-03T14:37:07.943Z,26.30
2022-12-03T14:39:35.080Z,45.15
2022-12-03T14:42:14.500Z,26.92
2022-12-03T14:44:41.718Z,43.47
2022-12-03T14:47:08.801Z,33.78
2022-12-03T14:49:35.910Z,32.63
2022-12-03T14:52:02.960Z,38.95
2022-12-03T14:54:30.278Z,30.77
2022-12-03T14:56:57.395Z,27.80
2022-12-03T14:59:27.614Z,33.63
2022-12-03T15:01:55.438Z,30.75
2022-12-03T15:04:22.717Z,36.63
2022-12-03T15:06:49.814Z,28.45
2022-12-03T15:09:16.906Z,37.35
2022-12-03T15:11:46.334Z,30.15
2022-12-03T15:14:13.792Z,34.53
2022-12-03T15:16:40.907Z,29.58
2022-12-03T15:19:08.046Z,27.50
2022-12-03T15:21:35.191Z,30.33
2022-12-03T15:24:02.346Z,37.35
2022-12-03T15:26:29.586Z,30.95
2022-12-03T15:28:56.668Z,34.50
2022-12-03T15:31:23.921Z,31.45
2022-12-03T15:33:51.001Z,32.38
2022-12-03T15:36:18.067Z,26.08
2022-12-03T15:38:45.165Z,30.30
2022-12-03T15:41:21.797Z,28.40
2022-12-03T15:43:48.846Z,31.55
2022-12-03T15:46:15.950Z,35.67
2022-12-03T15:48:43.072Z,29.05
2022-12-03T15:51:10.139Z,28.23
2022-12-03T15:53:38.037Z,27.50
2022-12-03T15:56:05.092Z,35.90
2022-12-03T15:58:32.143Z,23.75
2022-12-03T16:00:59.203Z,25.77
2022-12-03T16:03:26.360Z,18.85
2022-12-03T16:05:53.462Z,22.70
2022-12-03T16:08:20.553Z,22.23
2022-12-03T16:10:47.714Z,25.48
2022-12-03T16:13:14.791Z,24.88
2022-12-03T16:15:41.924Z,23.95
2022-12-03T16:18:09.276Z,22.13
2022-12-03T16:20:36.356Z,31.13
2022-12-03T16:23:03.455Z,23.35
2022-12-03T16:25:30.537Z,27.60
2022-12-03T16:27:57.696Z,27.98
2022-12-03T16:30:24.826Z,34.83
2022-12-03T16:32:51.943Z,34.38
2022-12-03T16:35:19.044Z,41.80
2022-12-03T16:37:46.109Z,26.40
2022-12-03T16:40:13.206Z,32.25
2022-12-03T16:42:40.782Z,34.55
2022-12-03T16:45:10.688Z,43.50
2022-12-03T16:47:37.740Z,34.10
2022-12-03T16:50:04.879Z,26.38
2022-12-03T16:52:31.953Z,35.05
2022-12-03T16:54:59.067Z,38.65
2022-12-03T16:57:30.364Z,21.92
2022-12-03T17:00:00.734Z,28.58
2022-12-03T17:02:28.117Z,30.58
2022-12-03T17:04:55.389Z,34.88
2022-12-03T17:07:22.461Z,32.97
2022-12-03T17:09:49.578Z,24.55
2022-12-03T17:12:16.632Z,27.35
2022-12-03T17:14:43.709Z,25.17
2022-12-03T17:17:10.801Z,37.45
2022-12-03T17:19:37.882Z,28.08
2022-12-03T17:22:04.949Z,25.08
2022-12-03T17:24:32.005Z,24.00
2022-12-03T17:26:59.324Z,26.23
2022-12-03T17:29:26.518Z,25.67
2022-12-03T17:31:53.607Z,22.52
2022-12-03T17:34:20.747Z,23.75
2022-12-03T17:36:47.817Z,34.10
2022-12-03T17:39:14.876Z,19.60
2022-12-03T17:41:41.997Z,22.85
2022-12-03T17:44:12.127Z,21.30
2022-12-03T17:46:41.150Z,29.60
2022-12-03T17:49:08.291Z,23.75
2022-12-03T17:51:35.436Z,25.42
2022-12-03T17:54:02.597Z,29.40
2022-12-03T17:56:29.689Z,24.30
2022-12-03T17:58:57.178Z,29.52
2022-12-03T18:01:24.333Z,18.15
2022-12-03T18:03:51.510Z,16.83
2022-12-03T18:06:18.615Z,24.65
2022-12-03T18:08:45.706Z,31.00
2022-12-03T18:11:12.818Z,24.98
2022-12-03T18:13:39.929Z,23.33
2022-12-03T18:16:07.053Z,19.75
2022-12-03T18:18:34.167Z,24.83
2022-12-03T18:21:02.230Z,18.95
2022-12-03T18:23:29.380Z,22.48
2022-12-03T18:25:56.435Z,22.25
2022-12-03T18:28:23.492Z,21.35
2022-12-03T18:30:52.832Z,21.27
2022-12-03T18:33:21.269Z,18.13
2022-12-03T18:35:48.411Z,23.05
2022-12-03T18:38:15.546Z,18.85
2022-12-03T18:40:42.629Z,19.58
2022-12-03T18:43:09.698Z,17.88
2022-12-03T18:45:36.762Z,23.27
2022-12-03T18:48:03.939Z,24.08
2022-12-03T18:50:31.093Z,28.02
2022-12-03T18:52:58.143Z,27.40
2022-12-03T18:55:25.190Z,23.60
2022-12-03T18:57:52.316Z,25.17
2022-12-03T19:00:19.386Z,30.17
2022-12-03T19:03:02.571Z,26.75
2022-12-03T19:05:30.598Z,26.35
2022-12-03T19:07:57.708Z,29.63
2022-12-03T19:10:24.825Z,28.85
2022-12-03T19:12:51.908Z,68.68
2022-12-03T19:15:19.022Z,49.47
2022-12-03T19:17:46.090Z,45.33
2022-12-03T19:20:13.141Z,40.47
2022-12-03T19:22:40.226Z,38.60
2022-12-03T19:25:07.291Z,47.22
2022-12-03T19:27:34.488Z,44.95
2022-12-03T19:30:01.552Z,65.40
2022-12-03T19:32:28.629Z,48.03
2022-12-03T19:34:55.758Z,51.90
2022-12-03T19:37:22.817Z,48.50
2022-12-03T19:39:49.899Z,52.25
2022-12-03T19:42:17.364Z,76.03
2022-12-03T19:44:44.431Z,55.22
2022-12-03T19:47:11.507Z,328.48
2022-12-03T19:49:38.608Z,149.38
2022-12-03T19:52:05.680Z,143.18
2022-12-03T19:54:32.887Z,154.05
2022-12-03T19:57:00.055Z,116.38
2022-12-03T19:59:27.117Z,139.85
2022-12-03T20:01:54.307Z,106.18
2022-12-03T20:04:21.489Z,104.72
2022-12-03T20:06:48.581Z,101.03
2022-12-03T20:09:18.045Z,91.03
2022-12-03T20:11:45.928Z,95.05
2022-12-03T20:14:13.152Z,95.97
2022-12-03T20:16:40.266Z,88.10
2022-12-03T20:19:07.405Z,72.60
2022-12-03T20:21:34.540Z,87.47
2022-12-03T20:24:01.631Z,92.00
2022-12-03T20:26:28.726Z,73.60
2022-12-03T20:28:58.315Z,96.28
2022-12-03T20:31:25.464Z,89.90
2022-12-03T20:33:52.554Z,79.10
2022-12-03T20:36:20.664Z,70.45
2022-12-03T20:38:48.175Z,70.10
2022-12-03T20:41:15.271Z,90.45
2022-12-03T20:43:42.423Z,112.18
2022-12-03T20:46:09.549Z,84.03
2022-12-03T20:48:36.678Z,94.47
2022-12-03T20:51:03.863Z,86.05
2022-12-03T20:53:31.122Z,80.15
2022-12-03T20:55:58.235Z,61.63
2022-12-03T20:58:25.362Z,72.63
2022-12-03T21:00:52.492Z,75.05
2022-12-03T21:03:19.635Z,65.90
2022-12-03T21:05:47.585Z,70.05
2022-12-03T21:08:14.720Z,65.63
2022-12-03T21:10:45.151Z,85.65
2022-12-03T21:13:12.230Z,52.88
2022-12-03T21:15:39.334Z,49.75
2022-12-03T21:18:06.429Z,69.10
2022-12-03T21:20:33.537Z,53.58
2022-12-03T21:23:00.625Z,74.65
2022-12-03T21:25:27.684Z,45.50
2022-12-03T21:27:56.155Z,61.17
2022-12-03T21:30:23.442Z,70.70
2022-12-03T21:32:50.642Z,55.97
2022-12-03T21:35:18.583Z,47.95
2022-12-03T21:37:45.654Z,46.78
2022-12-03T21:40:12.769Z,48.17
2022-12-03T21:42:39.828Z,55.80
2022-12-03T21:45:07.409Z,48.85
2022-12-03T21:47:37.196Z,42.47
2022-12-03T21:50:04.882Z,35.42
2022-12-03T21:52:32.108Z,41.75
2022-12-03T21:54:59.209Z,33.50
2022-12-03T21:57:26.306Z,37.38
2022-12-03T21:59:53.768Z,38.10
2022-12-03T22:02:21.125Z,40.53
2022-12-03T22:04:48.214Z,40.40
2022-12-03T22:07:15.273Z,35.10
2022-12-03T22:09:42.352Z,28.85
2022-12-03T22:12:09.411Z,33.38
2022-12-03T22:14:36.537Z,29.25
2022-12-03T22:17:03.606Z,30.88
2022-12-03T22:19:30.689Z,33.25
2022-12-03T22:21:57.797Z,28.48
2022-12-03T22:24:24.942Z,30.13
2022-12-03T22:26:54.643Z,27.42
2022-12-03T22:29:21.810Z,27.83
2022-12-03T22:31:48.890Z,33.00
2022-12-03T22:34:15.946Z,29.77
2022-12-03T22:36:43.032Z,26.65
2022-12-03T22:39:10.097Z,30.50
2022-12-03T22:41:37.171Z,30.13
2022-12-03T22:44:04.301Z,26.00
2022-12-03T22:46:31.372Z,20.92
2022-12-03T22:49:03.307Z,28.27
2022-12-03T22:51:33.711Z,22.25
2022-12-03T22:54:01.079Z,28.98
2022-12-03T22:56:28.559Z,27.65
2022-12-03T22:58:55.620Z,23.52
2022-12-03T23:01:22.702Z,21.40
2022-12-03T23:03:49.995Z,19.20
2022-12-03T23:06:17.218Z,24.48
2022-12-03T23:08:44.281Z,25.92
2022-12-03T23:11:11.349Z,22.52
2022-12-03T23:13:38.420Z,27.35
2022-12-03T23:16:05.570Z,22.42
2022-12-03T23:18:32.752Z,21.80
2022-12-03T23:20:59.798Z,21.52
2022-12-03T23:23:26.843Z,21.15
2022-12-03T23:25:53.898Z,16.70
2022-12-03T23:28:21.224Z,18.50
2022-12-03T23:30:48.336Z,20.55
2022-12-03T23:33:16.701Z,20.83
2022-12-03T23:35:44.395Z,15.05
2022-12-03T23:38:11.750Z,16.50
2022-12-03T23:40:42.271Z,15.52
2022-12-03T23:43:11.940Z,22.15
2022-12-03T23:45:39.069Z,23.55
2022-12-03T23:48:06.143Z,17.45
2022-12-03T23:50:34.645Z,22.08
2022-12-03T23:53:01.708Z,22.60
2022-12-03T23:55:28.768Z,12.40
2022-12-03T23:57:55.842Z,18.42
